createdAt,value
2019-02-21T00:02:07.797Z,29.97
2019-02-21T00:04:36.312Z,29.37
2019-02-21T00:07:04.723Z,27.60
2019-02-21T00:09:33.255Z,28.52
2019-02-21T00:12:01.697Z,29.70
2019-02-21T00:14:30.235Z,30.02
2019-02-21T00:16:58.904Z,29.12
2019-02-21T00:19:27.919Z,30.55
2019-02-21T00:21:56.391Z,30.05
2019-02-21T00:24:24.887Z,28.98
2019-02-21T00:26:53.359Z,28.02
2019-02-21T00:29:21.832Z,29.27
2019-02-21T00:31:50.326Z,29.75
2019-02-21T00:34:18.791Z,28.73
2019-02-21T00:36:47.264Z,29.20
2019-02-21T00:39:15.754Z,29.05
2019-02-21T00:41:44.212Z,28.35
2019-02-21T00:44:12.670Z,28.77
2019-02-21T00:46:41.172Z,28.98
2019-02-21T00:49:09.629Z,30.37
2019-02-21T00:51:38.083Z,30.17
2019-02-21T00:54:06.579Z,30.40
2019-02-21T00:56:35.035Z,30.00
2019-02-21T00:59:03.505Z,28.57
2019-02-21T01:01:32.020Z,28.95
2019-02-21T01:04:00.471Z,27.02
2019-02-21T01:06:28.999Z,27.80
2019-02-21T01:08:57.641Z,26.80
2019-02-21T01:11:26.109Z,24.90
2019-02-21T01:13:54.662Z,27.55
2019-02-21T01:16:23.783Z,25.50
2019-02-21T01:18:52.308Z,25.27
2019-02-21T01:21:21.482Z,26.30
2019-02-21T01:23:50.617Z,25.82
2019-02-21T01:26:19.067Z,26.55
2019-02-21T01:28:47.642Z,26.15
2019-02-21T01:31:16.127Z,26.45
2019-02-21T01:33:44.627Z,25.68
2019-02-21T01:36:13.044Z,27.87
2019-02-21T01:38:41.550Z,25.88
2019-02-21T01:41:10.019Z,26.87
2019-02-21T01:43:38.527Z,27.48
2019-02-21T01:46:07.043Z,27.80
2019-02-21T01:48:35.547Z,27.77
2019-02-21T01:51:04.074Z,28.75
2019-02-21T01:53:32.511Z,28.02
2019-02-21T01:56:01.035Z,27.65
2019-02-21T01:58:30.559Z,26.45
2019-02-21T02:01:08.043Z,28.80
2019-02-21T02:03:29.136Z,29.57
2019-02-21T02:05:57.630Z,28.17
2019-02-21T02:08:26.095Z,30.62
2019-02-21T02:10:54.553Z,28.47
2019-02-21T02:13:24.905Z,28.80
2019-02-21T02:15:53.190Z,27.45
2019-02-21T02:18:21.669Z,28.30
2019-02-21T02:20:50.130Z,30.37
2019-02-21T02:23:18.731Z,31.15
2019-02-21T02:25:47.315Z,30.85
2019-02-21T02:28:15.963Z,30.85
2019-02-21T02:30:44.483Z,29.77
2019-02-21T02:33:13.047Z,31.50
2019-02-21T02:35:41.572Z,32.17
2019-02-21T02:38:10.075Z,31.60
2019-02-21T02:40:38.543Z,35.15
2019-02-21T02:43:07.040Z,37.80
2019-02-21T02:45:35.585Z,32.80
2019-02-21T02:48:04.746Z,34.67
2019-02-21T02:50:33.357Z,34.35
2019-02-21T02:53:21.087Z,33.78
2019-02-21T02:55:49.675Z,33.63
2019-02-21T02:58:18.140Z,34.03
2019-02-21T03:00:46.587Z,36.48
2019-02-21T03:03:15.093Z,36.55
2019-02-21T03:05:44.344Z,36.63
2019-02-21T03:08:12.898Z,37.70
2019-02-21T03:10:41.414Z,35.80
2019-02-21T03:13:09.936Z,36.28
2019-02-21T03:15:38.455Z,36.23
2019-02-21T03:18:06.999Z,36.08
2019-02-21T03:20:35.460Z,35.58
2019-02-21T03:23:03.989Z,35.15
2019-02-21T03:25:32.774Z,35.70
2019-02-21T03:28:01.667Z,36.03
2019-02-21T03:30:30.135Z,35.95
2019-02-21T03:32:58.735Z,34.98
2019-02-21T03:35:27.218Z,35.95
2019-02-21T03:37:55.698Z,32.98
2019-02-21T03:40:24.179Z,33.45
2019-02-21T03:42:52.646Z,33.35
2019-02-21T03:45:21.107Z,32.58
2019-02-21T03:47:49.608Z,34.60
2019-02-21T03:50:18.100Z,33.25
2019-02-21T03:52:48.891Z,33.35
2019-02-21T03:55:19.382Z,35.30
2019-02-21T03:57:54.569Z,33.88
2019-02-21T04:00:26.801Z,34.23
2019-02-21T04:02:55.256Z,33.95
2019-02-21T04:05:23.761Z,36.60
2019-02-21T04:07:52.420Z,36.80
2019-02-21T04:10:21.004Z,33.75
2019-02-21T04:12:51.021Z,34.90
2019-02-21T04:15:19.501Z,35.17
2019-02-21T04:17:48.088Z,35.40
2019-02-21T04:20:16.572Z,33.25
2019-02-21T04:22:45.052Z,35.03
2019-02-21T04:25:13.526Z,33.55
2019-02-21T04:27:42.213Z,34.67
2019-02-21T04:30:10.799Z,37.25
2019-02-21T04:32:39.280Z,32.98
2019-02-21T04:35:07.707Z,34.45
2019-02-21T04:37:36.243Z,34.90
2019-02-21T04:40:05.853Z,37.25
2019-02-21T04:42:34.329Z,37.00
2019-02-21T04:45:03.016Z,33.45
2019-02-21T04:47:31.494Z,33.60
2019-02-21T04:49:59.978Z,33.08
2019-02-21T04:52:28.563Z,32.23
2019-02-21T04:54:57.008Z,33.70
2019-02-21T04:57:38.062Z,36.45
2019-02-21T05:00:08.038Z,33.35
2019-02-21T05:02:36.509Z,34.27
2019-02-21T05:05:06.268Z,34.40
2019-02-21T05:07:34.809Z,32.53
2019-02-21T05:10:03.916Z,32.90
2019-02-21T05:12:32.414Z,32.65
2019-02-21T05:15:00.971Z,33.73
2019-02-21T05:17:29.436Z,35.52
2019-02-21T05:19:58.034Z,33.85
2019-02-21T05:22:26.492Z,31.40
2019-02-21T05:24:54.943Z,33.20
2019-02-21T05:27:25.018Z,33.08
2019-02-21T05:29:53.510Z,32.78
2019-02-21T05:32:25.972Z,31.55
2019-02-21T05:34:56.089Z,32.38
2019-02-21T05:37:26.067Z,33.42
2019-02-21T05:39:56.126Z,28.60
2019-02-21T05:42:26.244Z,29.45
2019-02-21T05:45:14.785Z,31.45
2019-02-21T05:47:47.373Z,29.80
2019-02-21T05:50:33.980Z,29.25
2019-02-21T05:53:10.243Z,31.42
2019-02-21T05:55:40.275Z,30.12
2019-02-21T05:58:12.592Z,29.23
2019-02-21T06:00:51.251Z,31.48
2019-02-21T06:03:24.127Z,29.48
2019-02-21T06:05:54.254Z,30.57
2019-02-21T06:08:39.597Z,29.32
2019-02-21T06:11:22.173Z,28.42
2019-02-21T06:14:01.615Z,29.12
2019-02-21T06:16:34.672Z,31.17
2019-02-21T06:19:07.251Z,31.87
2019-02-21T06:21:53.619Z,32.13
2019-02-21T06:24:35.824Z,32.48
2019-02-21T06:27:14.780Z,32.70
2019-02-21T06:30:03.140Z,33.15
2019-02-21T06:32:31.604Z,34.38
2019-02-21T06:35:02.514Z,33.50
2019-02-21T06:37:30.171Z,33.33
2019-02-21T06:39:58.683Z,36.60
2019-02-21T06:42:27.168Z,33.90
2019-02-21T06:44:55.601Z,32.55
2019-02-21T06:47:24.131Z,33.63
2019-02-21T06:49:52.610Z,33.28
2019-02-21T06:52:21.043Z,33.55
2019-02-21T06:54:49.633Z,35.50
2019-02-21T06:57:18.509Z,35.03
2019-02-21T06:59:47.460Z,34.25
2019-02-21T07:02:16.392Z,34.50
2019-02-21T07:04:45.275Z,35.68
2019-02-21T07:07:14.125Z,32.45
2019-02-21T07:09:43.020Z,32.35
2019-02-21T07:12:11.911Z,30.62
2019-02-21T07:14:40.801Z,32.50
2019-02-21T07:17:09.747Z,35.37
2019-02-21T07:19:38.580Z,31.20
2019-02-21T07:22:07.578Z,33.43
2019-02-21T07:24:38.539Z,34.57
2019-02-21T07:27:07.098Z,32.67
2019-02-21T07:29:35.547Z,36.13
2019-02-21T07:32:04.060Z,35.77
2019-02-21T07:34:32.541Z,37.97
2019-02-21T07:37:01.125Z,39.20
2019-02-21T07:39:35.953Z,38.83
2019-02-21T07:41:59.829Z,39.43
2019-02-21T07:44:28.326Z,42.00
2019-02-21T07:46:56.791Z,45.70
2019-02-21T07:49:25.849Z,44.33
2019-02-21T07:51:55.053Z,41.47
2019-02-21T07:54:23.483Z,39.00
2019-02-21T07:56:52.047Z,40.30
2019-02-21T07:59:20.545Z,38.23
2019-02-21T08:01:49.118Z,36.30
2019-02-21T08:04:17.559Z,38.30
2019-02-21T08:06:46.489Z,38.27
2019-02-21T08:09:14.910Z,39.80
2019-02-21T08:11:43.445Z,37.83
2019-02-21T08:14:12.029Z,38.63
2019-02-21T08:16:40.440Z,38.83
2019-02-21T08:19:08.889Z,40.17
2019-02-21T08:21:37.512Z,39.77
2019-02-21T08:24:07.051Z,39.07
2019-02-21T08:26:36.586Z,38.17
2019-02-21T08:29:06.254Z,38.53
2019-02-21T08:31:35.392Z,36.80
2019-02-21T08:34:05.921Z,36.63
2019-02-21T08:36:34.796Z,36.93
2019-02-21T08:39:06.207Z,36.90
2019-02-21T08:41:35.153Z,35.53
2019-02-21T08:44:04.146Z,37.37
2019-02-21T08:46:33.139Z,34.67
2019-02-21T08:49:02.133Z,35.40
2019-02-21T08:51:31.069Z,35.80
2019-02-21T08:54:00.017Z,34.30
2019-02-21T08:56:29.981Z,32.47
2019-02-21T08:58:59.538Z,34.40
2019-02-21T09:01:28.424Z,32.20
2019-02-21T09:03:57.426Z,32.33
2019-02-21T09:06:26.416Z,33.43
2019-02-21T09:08:55.307Z,33.77
2019-02-21T09:11:24.306Z,32.03
2019-02-21T09:13:55.680Z,30.40
2019-02-21T09:16:23.720Z,33.73
2019-02-21T09:18:52.610Z,31.80
2019-02-21T09:21:21.603Z,28.90
2019-02-21T09:23:50.447Z,29.97
2019-02-21T09:26:21.583Z,25.80
2019-02-21T09:28:49.914Z,26.87
2019-02-21T09:31:18.907Z,24.27
2019-02-21T09:33:47.906Z,24.70
2019-02-21T09:36:16.791Z,22.97
2019-02-21T09:38:45.683Z,24.73
2019-02-21T09:41:14.574Z,21.87
2019-02-21T09:43:43.463Z,22.43
2019-02-21T09:46:12.354Z,19.90
2019-02-21T09:48:41.257Z,22.03
2019-02-21T09:51:10.237Z,23.40
2019-02-21T09:53:39.130Z,20.93
2019-02-21T09:56:08.022Z,19.90
2019-02-21T09:58:36.832Z,20.20
2019-02-21T10:01:05.801Z,20.53
2019-02-21T10:03:34.795Z,18.87
2019-02-21T10:06:03.680Z,20.83
2019-02-21T10:08:32.577Z,20.17
2019-02-21T10:11:01.569Z,22.30
2019-02-21T10:13:30.563Z,23.87
2019-02-21T10:15:59.416Z,21.70
2019-02-21T10:18:28.345Z,23.00
2019-02-21T10:20:57.235Z,21.73
2019-02-21T10:23:26.118Z,21.30
2019-02-21T10:25:55.020Z,19.63
2019-02-21T10:28:23.909Z,21.80
2019-02-21T10:30:52.798Z,20.90
2019-02-21T10:33:21.721Z,23.90
2019-02-21T10:35:50.578Z,23.73
2019-02-21T10:38:19.478Z,25.13
2019-02-21T10:40:48.434Z,23.77
2019-02-21T10:43:17.354Z,23.17
2019-02-21T10:45:48.197Z,23.20
2019-02-21T10:48:16.876Z,22.70
2019-02-21T10:51:05.123Z,22.87
2019-02-21T10:53:34.118Z,22.00
2019-02-21T10:56:03.005Z,23.57
2019-02-21T10:58:31.895Z,21.30
2019-02-21T11:01:00.889Z,21.37
2019-02-21T11:03:29.881Z,21.23
2019-02-21T11:05:58.760Z,21.00
2019-02-21T11:08:27.666Z,20.97
2019-02-21T11:10:56.570Z,21.67
2019-02-21T11:13:25.547Z,22.30
2019-02-21T11:15:54.443Z,20.00
2019-02-21T11:18:23.329Z,20.00
2019-02-21T11:20:52.219Z,20.80
2019-02-21T11:23:21.213Z,19.40
2019-02-21T11:25:50.212Z,21.07
2019-02-21T11:28:19.097Z,19.10
2019-02-21T11:30:47.959Z,26.23
2019-02-21T11:33:16.954Z,19.57
2019-02-21T11:35:45.871Z,18.80
2019-02-21T11:38:14.762Z,17.43
2019-02-21T11:40:43.634Z,19.60
2019-02-21T11:43:12.544Z,17.87
2019-02-21T11:45:41.434Z,18.87
2019-02-21T11:48:10.428Z,17.60
2019-02-21T11:50:39.728Z,18.13
2019-02-21T11:53:09.541Z,16.43
2019-02-21T11:55:38.434Z,15.97
2019-02-21T11:58:07.422Z,15.80
2019-02-21T12:00:37.339Z,16.57
2019-02-21T12:03:06.230Z,15.43
2019-02-21T12:05:35.141Z,15.30
2019-02-21T12:08:04.218Z,14.60
2019-02-21T12:10:33.107Z,15.50
2019-02-21T12:13:01.999Z,12.87
2019-02-21T12:15:30.891Z,12.80
2019-02-21T12:17:59.883Z,12.47
2019-02-21T12:20:28.829Z,13.27
2019-02-21T12:22:57.646Z,12.83
2019-02-21T12:25:26.554Z,11.23
2019-02-21T12:27:55.547Z,11.30
2019-02-21T12:30:24.438Z,12.70
2019-02-21T12:32:53.314Z,12.80
2019-02-21T12:35:29.541Z,12.40
2019-02-21T12:37:52.751Z,12.57
2019-02-21T12:40:23.927Z,13.20
2019-02-21T12:42:52.887Z,12.00
2019-02-21T12:45:24.950Z,12.23
2019-02-21T12:47:54.495Z,12.37
2019-02-21T12:50:23.448Z,11.20
2019-02-21T12:52:52.442Z,13.30
2019-02-21T12:55:28.124Z,11.40
2019-02-21T12:57:52.681Z,14.03
2019-02-21T13:00:22.903Z,12.57
2019-02-21T13:02:51.790Z,13.67
2019-02-21T13:05:20.685Z,12.73
2019-02-21T13:07:49.576Z,13.37
2019-02-21T13:10:23.567Z,12.20
2019-02-21T13:12:52.477Z,11.83
2019-02-21T13:15:21.368Z,14.43
2019-02-21T13:17:51.088Z,12.67
2019-02-21T13:20:20.787Z,10.90
2019-02-21T13:22:49.679Z,12.97
2019-02-21T13:25:19.902Z,11.57
2019-02-21T13:27:48.807Z,11.40
2019-02-21T13:30:18.914Z,12.33
2019-02-21T13:32:47.907Z,13.17
2019-02-21T13:35:16.801Z,12.47
2019-02-21T13:37:45.688Z,13.27
2019-02-21T13:40:15.834Z,12.60
2019-02-21T13:42:44.801Z,12.30
2019-02-21T13:45:17.827Z,13.93
2019-02-21T13:47:46.984Z,13.00
2019-02-21T13:50:18.026Z,13.80
2019-02-21T13:52:47.018Z,13.60
2019-02-21T13:55:15.910Z,13.30
2019-02-21T13:57:44.805Z,12.60
2019-02-21T14:00:21.477Z,14.90
2019-02-21T14:02:50.304Z,13.13
2019-02-21T14:05:19.256Z,13.60
2019-02-21T14:07:48.247Z,14.50
2019-02-21T14:10:17.119Z,13.87
2019-02-21T14:12:46.033Z,14.77
2019-02-21T14:15:23.726Z,13.03
2019-02-21T14:17:52.617Z,13.73
2019-02-21T14:20:21.919Z,11.73
2019-02-21T14:22:50.910Z,12.70
2019-02-21T14:25:19.801Z,14.37
2019-02-21T14:27:48.692Z,14.83
2019-02-21T14:30:22.506Z,13.50
2019-02-21T14:32:51.389Z,15.83
2019-02-21T14:35:20.798Z,13.83
2019-02-21T14:37:49.790Z,13.00
2019-02-21T14:40:18.730Z,11.83
2019-02-21T14:42:47.669Z,13.53
2019-02-21T14:45:19.669Z,13.10
2019-02-21T14:47:48.624Z,13.90
2019-02-21T14:50:17.519Z,13.80
2019-02-21T14:52:46.410Z,12.93
2019-02-21T14:55:17.858Z,13.87
2019-02-21T14:57:46.850Z,14.23
2019-02-21T15:00:24.293Z,13.40
2019-02-21T15:02:53.187Z,11.70
2019-02-21T15:05:22.123Z,12.10
2019-02-21T15:07:51.117Z,13.70
2019-02-21T15:10:20.212Z,14.10
2019-02-21T15:12:49.104Z,14.13
2019-02-21T15:15:21.983Z,12.90
2019-02-21T15:17:51.295Z,13.27
2019-02-21T15:20:20.178Z,14.30
2019-02-21T15:22:49.069Z,14.83
2019-02-21T15:25:18.062Z,16.83
2019-02-21T15:27:47.056Z,16.20
2019-02-21T15:30:24.446Z,15.87
2019-02-21T15:32:52.855Z,16.90
2019-02-21T15:35:21.335Z,16.33
2019-02-21T15:37:49.890Z,16.20
2019-02-21T15:40:18.379Z,15.80
2019-02-21T15:42:46.959Z,16.27
2019-02-21T15:45:23.082Z,18.63
2019-02-21T15:47:47.401Z,16.20
2019-02-21T15:50:15.928Z,30.03
2019-02-21T15:52:45.599Z,27.57
2019-02-21T15:55:15.708Z,17.43
2019-02-21T15:57:44.215Z,15.87
2019-02-21T16:00:14.104Z,17.70
2019-02-21T16:02:42.616Z,15.97
2019-02-21T16:05:11.169Z,17.70
2019-02-21T16:07:39.752Z,18.10
2019-02-21T16:10:09.719Z,17.30
2019-02-21T16:12:38.336Z,19.33
2019-02-21T16:15:08.921Z,19.23
2019-02-21T16:17:39.412Z,19.13
2019-02-21T16:20:08.980Z,19.63
2019-02-21T16:22:37.431Z,20.50
2019-02-21T16:25:07.392Z,19.00
2019-02-21T16:27:35.898Z,19.87
2019-02-21T16:30:05.710Z,19.47
2019-02-21T16:32:34.191Z,20.30
2019-02-21T16:35:02.652Z,19.20
2019-02-21T16:37:31.153Z,20.00
2019-02-21T16:40:00.969Z,18.60
2019-02-21T16:42:29.753Z,21.50
2019-02-21T16:44:58.235Z,18.53
2019-02-21T16:47:27.431Z,21.60
2019-02-21T16:49:58.183Z,19.20
2019-02-21T16:52:26.024Z,19.63
2019-02-21T16:54:54.532Z,21.30
2019-02-21T16:57:23.402Z,21.50
2019-02-21T16:59:51.991Z,22.23
2019-02-21T17:02:20.445Z,21.23
2019-02-21T17:04:48.886Z,20.33
2019-02-21T17:07:20.133Z,18.30
2019-02-21T17:09:47.473Z,19.70
2019-02-21T17:12:15.918Z,20.93
2019-02-21T17:14:44.654Z,20.10
2019-02-21T17:17:13.122Z,19.80
2019-02-21T17:19:41.582Z,21.60
2019-02-21T17:22:10.066Z,20.90
2019-02-21T17:24:38.520Z,19.23
2019-02-21T17:27:07.130Z,18.53
2019-02-21T17:29:35.973Z,19.67
2019-02-21T17:32:04.518Z,20.70
2019-02-21T17:34:33.128Z,20.60
2019-02-21T17:37:01.580Z,19.77
2019-02-21T17:39:30.070Z,20.50
2019-02-21T17:41:58.682Z,19.73
2019-02-21T17:44:27.184Z,19.47
2019-02-21T17:46:55.768Z,19.07
2019-02-21T17:49:24.358Z,18.50
2019-02-21T17:51:53.900Z,18.27
2019-02-21T17:54:24.855Z,18.93
2019-02-21T17:56:52.959Z,19.23
2019-02-21T17:59:21.492Z,17.97
2019-02-21T18:01:49.987Z,17.27
2019-02-21T18:04:18.440Z,18.40
2019-02-21T18:06:47.091Z,18.73
2019-02-21T18:09:16.412Z,17.20
2019-02-21T18:11:45.154Z,15.37
2019-02-21T18:14:13.620Z,16.37
2019-02-21T18:16:42.074Z,15.73
2019-02-21T18:19:10.532Z,15.73
2019-02-21T18:21:39.031Z,16.27
2019-02-21T18:24:07.480Z,16.90
2019-02-21T18:26:35.932Z,19.00
2019-02-21T18:29:04.889Z,17.37
2019-02-21T18:31:34.010Z,19.53
2019-02-21T18:34:02.977Z,18.13
2019-02-21T18:36:31.973Z,18.00
2019-02-21T18:39:00.865Z,19.30
2019-02-21T18:41:29.727Z,20.33
2019-02-21T18:43:58.629Z,19.63
2019-02-21T18:46:27.637Z,22.17
2019-02-21T18:48:56.617Z,22.10
2019-02-21T18:51:25.622Z,21.77
2019-02-21T18:53:54.513Z,31.83
2019-02-21T18:56:23.404Z,28.17
2019-02-21T18:58:52.561Z,22.33
2019-02-21T19:01:21.520Z,23.03
2019-02-21T19:03:50.476Z,22.93
2019-02-21T19:06:19.375Z,23.30
2019-02-21T19:08:48.322Z,21.80
2019-02-21T19:11:17.216Z,22.53
2019-02-21T19:13:46.434Z,23.77
2019-02-21T19:16:15.335Z,22.53
2019-02-21T19:18:44.514Z,23.55
2019-02-21T19:21:13.637Z,23.30
2019-02-21T19:23:42.674Z,21.00
2019-02-21T19:26:11.625Z,22.03
2019-02-21T19:28:40.516Z,23.60
2019-02-21T19:31:11.776Z,22.67
2019-02-21T19:33:41.268Z,23.33
2019-02-21T19:36:10.134Z,22.80
2019-02-21T19:38:38.971Z,21.07
2019-02-21T19:41:07.863Z,23.43
2019-02-21T19:43:36.816Z,22.20
2019-02-21T19:46:05.926Z,22.87
2019-02-21T19:48:34.771Z,23.57
2019-02-21T19:51:03.712Z,22.40
2019-02-21T19:53:32.706Z,23.10
2019-02-21T19:56:01.287Z,23.43
2019-02-21T19:58:29.871Z,23.70
2019-02-21T20:00:58.356Z,24.87
2019-02-21T20:03:26.827Z,24.73
2019-02-21T20:05:55.316Z,22.83
2019-02-21T20:08:23.766Z,24.20
2019-02-21T20:10:52.211Z,25.23
2019-02-21T20:13:20.767Z,65.83
2019-02-21T20:15:49.344Z,25.80
2019-02-21T20:18:17.924Z,23.80
2019-02-21T20:20:46.375Z,24.80
2019-02-21T20:23:17.409Z,24.93
2019-02-21T20:25:51.172Z,22.97
2019-02-21T20:28:23.071Z,23.27
2019-02-21T20:30:53.708Z,25.10
2019-02-21T20:33:27.522Z,26.33
2019-02-21T20:35:58.674Z,26.43
2019-02-21T20:38:32.112Z,25.30
2019-02-21T20:41:04.979Z,26.43
2019-02-21T20:43:37.267Z,23.80
2019-02-21T20:46:13.976Z,24.40
2019-02-21T20:48:53.394Z,24.40
2019-02-21T20:51:27.552Z,23.83
2019-02-21T20:53:59.110Z,24.23
2019-02-21T20:56:31.066Z,26.37
2019-02-21T20:59:05.558Z,24.03
2019-02-21T21:01:40.263Z,23.83
2019-02-21T21:04:12.571Z,22.70
2019-02-21T21:06:47.197Z,20.37
2019-02-21T21:09:24.853Z,22.00
2019-02-21T21:12:00.803Z,21.80
2019-02-21T21:14:55.041Z,21.03
2019-02-21T21:17:29.228Z,20.73
2019-02-21T21:20:00.881Z,18.93
2019-02-21T21:22:34.354Z,21.37
2019-02-21T21:25:07.679Z,20.37
2019-02-21T21:27:36.833Z,21.90
2019-02-21T21:30:08.402Z,19.60
2019-02-21T21:32:37.277Z,20.23
2019-02-21T21:35:07.294Z,20.73
2019-02-21T21:37:36.289Z,19.50
2019-02-21T21:40:08.356Z,20.33
2019-02-21T21:42:37.449Z,19.00
2019-02-21T21:45:09.308Z,20.87
2019-02-21T21:47:38.200Z,20.73
2019-02-21T21:50:10.572Z,18.90
2019-02-21T21:52:39.568Z,20.57
2019-02-21T21:55:09.379Z,19.20
2019-02-21T21:57:37.859Z,20.50
2019-02-21T22:00:07.808Z,18.57
2019-02-21T22:02:36.357Z,19.63
2019-02-21T22:05:06.423Z,18.20
2019-02-21T22:07:34.956Z,17.23
2019-02-21T22:10:04.359Z,17.90
2019-02-21T22:12:32.944Z,17.33
2019-02-21T22:15:01.432Z,18.60
2019-02-21T22:17:30.007Z,16.63
2019-02-21T22:19:58.498Z,16.57
2019-02-21T22:22:27.072Z,17.63
2019-02-21T22:24:55.542Z,16.77
2019-02-21T22:27:24.888Z,16.70
2019-02-21T22:29:54.127Z,17.33
2019-02-21T22:32:22.636Z,17.30
2019-02-21T22:34:51.219Z,18.30
2019-02-21T22:37:19.639Z,18.67
2019-02-21T22:39:48.181Z,19.30
2019-02-21T22:42:16.607Z,20.17
2019-02-21T22:44:45.058Z,20.40
2019-02-21T22:47:13.562Z,20.77
2019-02-21T22:49:42.015Z,21.03
2019-02-21T22:52:10.479Z,18.60
2019-02-21T22:54:38.977Z,18.73
2019-02-21T22:57:07.441Z,18.90
2019-02-21T22:59:35.906Z,18.70
2019-02-21T23:02:05.133Z,18.70
2019-02-21T23:04:35.035Z,18.50
2019-02-21T23:07:07.919Z,18.20
2019-02-21T23:09:36.415Z,19.03
2019-02-21T23:12:06.370Z,18.50
2019-02-21T23:14:34.862Z,18.30
2019-02-21T23:17:22.591Z,19.40
2019-02-21T23:19:51.120Z,17.60
2019-02-21T23:22:19.539Z,19.70
2019-02-21T23:24:47.991Z,20.83
2019-02-21T23:27:16.566Z,20.60
2019-02-21T23:29:45.051Z,20.27
2019-02-21T23:32:13.525Z,19.57
2019-02-21T23:34:42.528Z,20.30
2019-02-21T23:37:11.008Z,19.73
2019-02-21T23:39:39.457Z,20.03
2019-02-21T23:42:07.955Z,20.93
2019-02-21T23:44:36.453Z,20.60
2019-02-21T23:47:04.924Z,19.00
2019-02-21T23:49:33.367Z,18.83
2019-02-21T23:52:01.874Z,18.50
2019-02-21T23:54:30.331Z,18.70
2019-02-21T23:56:58.849Z,17.83
2019-02-21T23:59:27.292Z,20.80
